Time;durP1;ratioP1;P1;durP2;ratioP2;P2;SDS_P1;SDS_P2;PMS_P1;PMS_P2;Temp;Humidity;BMP_temperature;BMP_pressure;BME280_temperature;BME280_humidity;BME280_pressure;Samples;Min_cycle;Max_cycle;Signal;HPM_P1;HPM_P2
2021/06/22 00:02:13;;;;;;;6.40;4.13;;;;;;;;;;5116396;28;20475;-72
2021/06/22 00:04:41;;;;;;;8.63;4.50;;;;;;;;;;5119157;28;20842;-72
2021/06/22 00:07:14;;;;;;;8.20;4.87;;;;;;;;;;5118068;28;20483;-72
2021/06/22 00:09:41;;;;;;;7.90;4.07;;;;;;;;;;5104710;28;20553;-71
2021/06/22 00:12:10;;;;;;;7.47;4.83;;;;;;;;;;5098198;28;20767;-71
2021/06/22 00:14:38;;;;;;;8.80;4.27;;;;;;;;;;5097860;28;20546;-71
2021/06/22 00:17:05;;;;;;;5.90;3.73;;;;;;;;;;5097634;28;20444;-72
2021/06/22 00:19:33;;;;;;;6.20;4.10;;;;;;;;;;5097103;28;20462;-71
2021/06/22 00:22:01;;;;;;;7.53;5.13;;;;;;;;;;5097944;28;20460;-71
2021/06/22 00:24:31;;;;;;;8.50;4.80;;;;;;;;;;5097713;28;20452;-72
2021/06/22 00:26:58;;;;;;;10.50;4.20;;;;;;;;;;5098094;28;20488;-71
2021/06/22 00:29:27;;;;;;;13.20;4.17;;;;;;;;;;5097721;28;20463;-71
2021/06/22 00:31:58;;;;;;;9.80;3.67;;;;;;;;;;5098080;28;20452;-71
2021/06/22 00:34:26;;;;;;;10.47;4.30;;;;;;;;;;5098061;28;20464;-71
2021/06/22 00:36:54;;;;;;;10.73;3.93;;;;;;;;;;5098274;28;20452;-71
2021/06/22 00:39:22;;;;;;;9.73;4.17;;;;;;;;;;5099085;28;20455;-71
2021/06/22 00:41:54;;;;;;;6.83;4.50;;;;;;;;;;5098079;28;20464;-71
2021/06/22 00:44:21;;;;;;;12.70;5.10;;;;;;;;;;5098290;28;20443;-71
2021/06/22 00:46:50;;;;;;;10.03;4.30;;;;;;;;;;5097612;28;20492;-71
2021/06/22 00:49:18;;;;;;;9.03;4.73;;;;;;;;;;5098170;28;20463;-71
2021/06/22 00:51:46;;;;;;;8.53;4.77;;;;;;;;;;5097824;28;20529;-71
2021/06/22 00:54:13;;;;;;;11.17;4.50;;;;;;;;;;5097354;28;20456;-71
2021/06/22 00:56:41;;;;;;;12.20;4.60;;;;;;;;;;5097646;28;20738;-71
2021/06/22 00:59:14;;;;;;;8.10;5.17;;;;;;;;;;5099339;28;20471;-71
2021/06/22 01:01:41;;;;;;;9.30;5.07;;;;;;;;;;5097746;28;20727;-71
2021/06/22 01:04:10;;;;;;;7.13;4.50;;;;;;;;;;5097717;28;20868;-70
2021/06/22 01:06:37;;;;;;;13.70;5.70;;;;;;;;;;5097090;28;20889;-71
2021/06/22 01:09:05;;;;;;;16.23;5.63;;;;;;;;;;5096261;28;20450;-71
2021/06/22 01:11:33;;;;;;;7.47;4.73;;;;;;;;;;5097207;28;20460;-71
2021/06/22 01:14:01;;;;;;;9.30;4.43;;;;;;;;;;5097489;28;20483;-70
2021/06/22 01:16:31;;;;;;;7.67;4.47;;;;;;;;;;5096985;28;20847;-71
2021/06/22 01:18:59;;;;;;;10.43;5.30;;;;;;;;;;5096985;28;20763;-71
2021/06/22 01:21:30;;;;;;;13.20;4.70;;;;;;;;;;5097327;28;20455;-71
2021/06/22 01:24:04;;;;;;;9.37;5.17;;;;;;;;;;5096999;28;20463;-71
2021/06/22 01:26:34;;;;;;;10.90;4.53;;;;;;;;;;5096676;28;20486;-71
2021/06/22 01:29:03;;;;;;;12.60;4.90;;;;;;;;;;5097303;28;20452;-71
2021/06/22 01:31:32;;;;;;;9.57;4.63;;;;;;;;;;5097421;28;20474;-71
2021/06/22 01:33:59;;;;;;;16.57;5.30;;;;;;;;;;5098522;28;20455;-71
2021/06/22 01:36:31;;;;;;;6.13;4.60;;;;;;;;;;5096900;28;20516;-71
2021/06/22 01:38:59;;;;;;;15.20;5.37;;;;;;;;;;5096743;28;20476;-71
2021/06/22 01:41:27;;;;;;;13.00;5.50;;;;;;;;;;5096997;28;20968;-71
2021/06/22 01:43:54;;;;;;;10.70;5.50;;;;;;;;;;5096514;28;20444;-71
2021/06/22 01:46:22;;;;;;;13.40;5.37;;;;;;;;;;5098790;28;20495;-71
2021/06/22 01:48:50;;;;;;;8.63;4.50;;;;;;;;;;5096992;28;20883;-71
2021/06/22 01:51:18;;;;;;;8.73;4.93;;;;;;;;;;5096541;28;20482;-70
2021/06/22 01:53:53;;;;;;;8.17;4.37;;;;;;;;;;5096604;28;20525;-71
2021/06/22 01:56:21;;;;;;;10.30;5.50;;;;;;;;;;5096869;28;20477;-71
2021/06/22 01:58:49;;;;;;;8.20;4.57;;;;;;;;;;5096653;28;20474;-71
2021/06/22 02:01:18;;;;;;;11.30;4.80;;;;;;;;;;5096147;28;20467;-71
2021/06/22 02:03:46;;;;;;;8.80;4.67;;;;;;;;;;5096583;28;20452;-71
2021/06/22 02:06:14;;;;;;;8.43;4.67;;;;;;;;;;5095693;28;20598;-71
2021/06/22 02:08:42;;;;;;;10.47;5.17;;;;;;;;;;5096810;28;20458;-71
2021/06/22 02:11:11;;;;;;;8.63;5.60;;;;;;;;;;5103159;28;20454;-71
2021/06/22 02:13:39;;;;;;;15.10;4.63;;;;;;;;;;5102836;28;20477;-71
2021/06/22 02:16:06;;;;;;;16.93;6.50;;;;;;;;;;5107865;28;20524;-71
2021/06/22 02:18:34;;;;;;;17.23;7.33;;;;;;;;;;5116482;28;20459;-71
2021/06/22 02:21:04;;;;;;;11.67;5.10;;;;;;;;;;5120081;28;20447;-71
2021/06/22 02:23:32;;;;;;;13.20;5.53;;;;;;;;;;5120173;28;20490;-71
2021/06/22 02:26:00;;;;;;;16.20;5.70;;;;;;;;;;5121009;28;20519;-71
2021/06/22 02:28:29;;;;;;;10.67;5.67;;;;;;;;;;5117742;28;20537;-72
2021/06/22 02:30:59;;;;;;;9.77;5.20;;;;;;;;;;5100112;28;20451;-71
2021/06/22 02:33:29;;;;;;;9.60;5.43;;;;;;;;;;5115627;28;20450;-71
2021/06/22 02:35:57;;;;;;;11.53;5.33;;;;;;;;;;5120702;28;20453;-71
2021/06/22 02:38:25;;;;;;;12.27;5.47;;;;;;;;;;5120148;28;20443;-70
2021/06/22 02:40:53;;;;;;;12.63;5.77;;;;;;;;;;5120416;28;20446;-70
2021/06/22 02:43:21;;;;;;;12.63;6.80;;;;;;;;;;5120483;28;20783;-71
2021/06/22 02:45:50;;;;;;;13.33;5.73;;;;;;;;;;5120046;28;20443;-71
2021/06/22 02:48:18;;;;;;;10.83;5.90;;;;;;;;;;5120602;28;20486;-71
2021/06/22 02:50:46;;;;;;;11.63;5.40;;;;;;;;;;5120023;28;20458;-71
2021/06/22 02:53:14;;;;;;;11.30;4.83;;;;;;;;;;5120182;28;20473;-70
2021/06/22 02:55:42;;;;;;;11.80;5.13;;;;;;;;;;5120164;28;20454;-71
2021/06/22 02:58:10;;;;;;;16.00;5.60;;;;;;;;;;5119030;28;20874;-70
2021/06/22 03:00:41;;;;;;;13.43;5.37;;;;;;;;;;5119177;28;20450;-70
2021/06/22 03:03:10;;;;;;;8.87;4.97;;;;;;;;;;5119336;28;20447;-71
2021/06/22 03:05:38;;;;;;;14.67;6.37;;;;;;;;;;5119332;28;20451;-71
2021/06/22 03:08:07;;;;;;;11.00;5.50;;;;;;;;;;5119966;28;20542;-71
2021/06/22 03:10:43;;;;;;;13.80;6.00;;;;;;;;;;5116666;28;20505;-72
2021/06/22 03:13:13;;;;;;;10.50;6.67;;;;;;;;;;5114463;28;20455;-72
2021/06/22 03:15:41;;;;;;;17.23;6.67;;;;;;;;;;5119945;28;20439;-70
2021/06/22 03:18:11;;;;;;;10.50;5.50;;;;;;;;;;5119702;28;20451;-71
2021/06/22 03:20:38;;;;;;;9.03;5.53;;;;;;;;;;5119550;28;20451;-71
2021/06/22 03:23:06;;;;;;;9.80;6.30;;;;;;;;;;5118828;28;20466;-71
2021/06/22 03:25:34;;;;;;;9.63;6.43;;;;;;;;;;5118688;28;20536;-70
2021/06/22 03:28:03;;;;;;;8.83;5.73;;;;;;;;;;5119170;28;20483;-70
2021/06/22 03:30:31;;;;;;;10.13;6.30;;;;;;;;;;5119200;28;20455;-71
2021/06/22 03:32:59;;;;;;;11.47;5.13;;;;;;;;;;5118561;28;20469;-71
2021/06/22 03:35:30;;;;;;;13.53;6.23;;;;;;;;;;5119929;28;20875;-70
2021/06/22 03:37:57;;;;;;;11.10;5.43;;;;;;;;;;5118992;28;20488;-71
2021/06/22 03:40:32;;;;;;;10.07;5.00;;;;;;;;;;5119318;28;20455;-71
2021/06/22 03:43:00;;;;;;;9.17;5.80;;;;;;;;;;5116439;28;20520;-71
2021/06/22 03:45:29;;;;;;;9.47;5.50;;;;;;;;;;5118957;28;20454;-71
2021/06/22 03:47:56;;;;;;;10.47;5.97;;;;;;;;;;5118137;28;20947;-71
2021/06/22 03:50:25;;;;;;;8.43;5.87;;;;;;;;;;5116162;28;20458;-71
2021/06/22 03:52:54;;;;;;;14.40;5.30;;;;;;;;;;5110559;28;20866;-70
2021/06/22 03:55:28;;;;;;;14.37;4.77;;;;;;;;;;5119366;28;20447;-71
2021/06/22 03:58:00;;;;;;;7.60;5.13;;;;;;;;;;5118541;28;20454;-71
2021/06/22 04:00:31;;;;;;;8.83;4.97;;;;;;;;;;5118355;28;20768;-71
2021/06/22 04:02:59;;;;;;;15.60;4.73;;;;;;;;;;5119033;28;20458;-70
2021/06/22 04:05:28;;;;;;;11.40;5.23;;;;;;;;;;5118061;28;20442;-70
2021/06/22 04:07:58;;;;;;;8.40;4.43;;;;;;;;;;5118340;28;20508;-70
2021/06/22 04:10:26;;;;;;;8.30;5.00;;;;;;;;;;5119523;28;20949;-70
2021/06/22 04:12:54;;;;;;;8.90;4.63;;;;;;;;;;5118360;28;20459;-70
2021/06/22 04:15:23;;;;;;;12.23;5.30;;;;;;;;;;5118026;28;20450;-71
2021/06/22 04:17:53;;;;;;;10.63;4.80;;;;;;;;;;5090311;28;20440;-70
2021/06/22 04:20:21;;;;;;;9.83;4.20;;;;;;;;;;5116013;28;20531;-71
2021/06/22 04:22:52;;;;;;;12.37;4.50;;;;;;;;;;5117594;28;20455;-70
2021/06/22 04:25:22;;;;;;;9.83;5.07;;;;;;;;;;5116845;28;20710;-71
2021/06/22 04:27:49;;;;;;;8.13;4.60;;;;;;;;;;5117175;28;20490;-70
2021/06/22 04:30:17;;;;;;;10.23;4.70;;;;;;;;;;5117813;28;20516;-70
2021/06/22 04:32:45;;;;;;;9.40;5.30;;;;;;;;;;5117446;28;20471;-71
2021/06/22 04:35:13;;;;;;;9.57;5.67;;;;;;;;;;5117892;28;20519;-72
2021/06/22 04:37:41;;;;;;;9.40;5.13;;;;;;;;;;5117764;28;20450;-71
2021/06/22 04:40:10;;;;;;;7.70;4.60;;;;;;;;;;5118214;28;20447;-71
2021/06/22 04:42:40;;;;;;;12.30;4.67;;;;;;;;;;5117886;28;20548;-71
2021/06/22 04:45:08;;;;;;;9.40;4.93;;;;;;;;;;5117435;28;20911;-71
2021/06/22 04:47:40;;;;;;;10.43;4.57;;;;;;;;;;5118257;28;20482;-72
2021/06/22 04:50:09;;;;;;;10.27;5.37;;;;;;;;;;5116882;28;20454;-71
2021/06/22 04:52:39;;;;;;;6.43;3.97;;;;;;;;;;5117323;28;20870;-71
2021/06/22 04:55:12;;;;;;;10.33;4.20;;;;;;;;;;5116410;28;20450;-71
2021/06/22 04:57:41;;;;;;;10.73;4.87;;;;;;;;;;5117427;28;20459;-72
2021/06/22 05:00:10;;;;;;;8.57;3.80;;;;;;;;;;5116617;28;20859;-71
2021/06/22 05:02:37;;;;;;;9.03;4.10;;;;;;;;;;5116754;28;20801;-71
2021/06/22 05:05:06;;;;;;;8.60;5.40;;;;;;;;;;5116308;28;20447;-71
2021/06/22 05:07:34;;;;;;;9.30;4.83;;;;;;;;;;5114911;28;20489;-71
2021/06/22 05:10:02;;;;;;;13.17;5.10;;;;;;;;;;5115795;28;20877;-71
2021/06/22 05:12:32;;;;;;;8.20;5.07;;;;;;;;;;5101354;28;20452;-71
2021/06/22 05:15:02;;;;;;;10.20;4.10;;;;;;;;;;5094737;28;20444;-71
2021/06/22 05:17:33;;;;;;;8.60;4.27;;;;;;;;;;5095654;28;20478;-71
2021/06/22 05:20:00;;;;;;;7.27;3.70;;;;;;;;;;5114796;28;20519;-71
2021/06/22 05:22:28;;;;;;;10.30;5.40;;;;;;;;;;5114031;28;20522;-71
2021/06/22 05:24:56;;;;;;;7.70;4.53;;;;;;;;;;5115845;28;20458;-71
2021/06/22 05:27:24;;;;;;;9.23;4.57;;;;;;;;;;5114752;28;20555;-71
2021/06/22 05:29:52;;;;;;;11.10;4.63;;;;;;;;;;5114518;28;20469;-71
2021/06/22 05:32:22;;;;;;;10.60;4.50;;;;;;;;;;5114870;28;20451;-71
2021/06/22 05:34:50;;;;;;;12.20;4.97;;;;;;;;;;5123242;27;20439;-71
2021/06/22 05:37:19;;;;;;;10.33;4.20;;;;;;;;;;5114483;28;20465;-71
2021/06/22 05:39:47;;;;;;;11.00;4.50;;;;;;;;;;5114339;28;20541;-71
2021/06/22 05:42:22;;;;;;;6.47;3.77;;;;;;;;;;5111351;28;20485;-72
2021/06/22 05:44:50;;;;;;;8.37;4.00;;;;;;;;;;5112896;28;20453;-71
2021/06/22 05:47:18;;;;;;;5.97;3.23;;;;;;;;;;5113790;28;20855;-71
2021/06/22 05:49:47;;;;;;;12.90;5.60;;;;;;;;;;5113550;28;20462;-71
2021/06/22 05:52:15;;;;;;;10.30;3.70;;;;;;;;;;5114790;28;20467;-71
2021/06/22 05:54:43;;;;;;;7.40;3.40;;;;;;;;;;5113582;28;20737;-71
2021/06/22 05:57:11;;;;;;;11.60;4.60;;;;;;;;;;5111087;28;20454;-71
2021/06/22 05:59:39;;;;;;;14.27;4.33;;;;;;;;;;5114627;28;20446;-71
2021/06/22 06:02:07;;;;;;;8.30;3.50;;;;;;;;;;5114535;28;20458;-71
2021/06/22 06:04:34;;;;;;;12.43;3.97;;;;;;;;;;5114579;28;20463;-71
2021/06/22 06:07:08;;;;;;;6.10;3.03;;;;;;;;;;5113892;28;20743;-72
2021/06/22 06:09:38;;;;;;;7.33;3.40;;;;;;;;;;5113730;28;20470;-72
2021/06/22 06:12:06;;;;;;;8.00;4.20;;;;;;;;;;5101853;28;20477;-71
2021/06/22 06:14:34;;;;;;;6.57;4.87;;;;;;;;;;5113440;28;20459;-71
2021/06/22 06:17:05;;;;;;;6.47;3.37;;;;;;;;;;5114664;28;20559;-71
2021/06/22 06:19:35;;;;;;;8.70;3.63;;;;;;;;;;5114375;28;20449;-71
2021/06/22 06:22:05;;;;;;;6.03;3.17;;;;;;;;;;5115490;28;21017;-71
2021/06/22 06:24:33;;;;;;;8.90;3.73;;;;;;;;;;5114581;28;20475;-72
2021/06/22 06:27:05;;;;;;;8.93;3.87;;;;;;;;;;5115175;28;20454;-71
2021/06/22 06:29:42;;;;;;;7.07;3.27;;;;;;;;;;5115011;28;20490;-71
2021/06/22 06:32:11;;;;;;;9.43;3.67;;;;;;;;;;5133742;28;20472;-73
2021/06/22 06:34:39;;;;;;;9.43;4.00;;;;;;;;;;5135947;28;20985;-71
2021/06/22 06:37:09;;;;;;;15.27;3.83;;;;;;;;;;5128458;28;20532;-71
2021/06/22 06:39:38;;;;;;;10.00;4.40;;;;;;;;;;5109567;28;20542;-72
2021/06/22 06:42:06;;;;;;;8.77;3.57;;;;;;;;;;5099404;28;20455;-72
2021/06/22 06:44:34;;;;;;;10.17;3.27;;;;;;;;;;5114146;28;20447;-71
2021/06/22 06:47:03;;;;;;;5.17;3.20;;;;;;;;;;5094901;28;20843;-71
2021/06/22 06:49:31;;;;;;;7.00;2.93;;;;;;;;;;5103646;28;20486;-72
2021/06/22 06:52:00;;;;;;;6.20;3.00;;;;;;;;;;5106426;28;20458;-72
2021/06/22 06:54:38;;;;;;;5.40;2.70;;;;;;;;;;5105493;28;20446;-73
2021/06/22 06:57:17;;;;;;;9.33;2.70;;;;;;;;;;5109145;28;20483;-72
2021/06/22 06:59:46;;;;;;;7.93;2.40;;;;;;;;;;5102437;28;20468;-71
2021/06/22 07:02:17;;;;;;;4.37;2.10;;;;;;;;;;5098769;28;20447;-72
2021/06/22 07:04:45;;;;;;;7.33;2.30;;;;;;;;;;5104999;28;20444;-71
2021/06/22 07:07:16;;;;;;;5.33;2.87;;;;;;;;;;5105294;28;20477;-72
2021/06/22 07:09:50;;;;;;;9.40;2.73;;;;;;;;;;5109242;28;20554;-72
2021/06/22 07:12:20;;;;;;;8.03;2.30;;;;;;;;;;5118898;28;20458;-72
2021/06/22 07:14:49;;;;;;;5.60;2.50;;;;;;;;;;5113033;28;20463;-73
2021/06/22 07:17:19;;;;;;;5.67;2.30;;;;;;;;;;5098555;28;20917;-71
2021/06/22 07:19:51;;;;;;;6.43;2.37;;;;;;;;;;5106132;28;20512;-71
2021/06/22 07:22:19;;;;;;;7.43;2.37;;;;;;;;;;5117474;28;20531;-72
2021/06/22 07:24:49;;;;;;;6.93;2.67;;;;;;;;;;5117760;28;20506;-71
2021/06/22 07:27:19;;;;;;;3.20;1.90;;;;;;;;;;5116583;28;20478;-72
2021/06/22 07:29:48;;;;;;;6.10;2.50;;;;;;;;;;5116827;28;20536;-72
2021/06/22 07:32:19;;;;;;;7.13;3.03;;;;;;;;;;5114844;28;20473;-71
2021/06/22 07:34:46;;;;;;;4.80;2.40;;;;;;;;;;5117483;28;20861;-72
2021/06/22 07:37:14;;;;;;;6.97;2.67;;;;;;;;;;5117758;28;20458;-71
2021/06/22 07:39:43;;;;;;;9.10;2.70;;;;;;;;;;5117527;28;20458;-72
2021/06/22 07:42:12;;;;;;;7.90;2.60;;;;;;;;;;5117964;28;20861;-72
2021/06/22 07:44:40;;;;;;;5.67;2.80;;;;;;;;;;5119132;28;20454;-72
2021/06/22 07:47:09;;;;;;;5.53;2.60;;;;;;;;;;5117013;28;20450;-72
2021/06/22 07:49:37;;;;;;;17.87;2.70;;;;;;;;;;5118109;28;20917;-72
2021/06/22 07:52:22;;;;;;;9.63;3.50;;;;;;;;;;5116721;28;20458;-73
2021/06/22 07:55:07;;;;;;;6.00;2.70;;;;;;;;;;5116286;28;20531;-74
2021/06/22 07:57:44;;;;;;;3.67;2.23;;;;;;;;;;5117223;28;20957;-73
2021/06/22 08:03:13;;;;;;;10.87;2.60;;;;;;;;;;5074947;28;20541;-72
2021/06/22 08:05:49;;;;;;;9.60;2.33;;;;;;;;;;5104141;28;20890;-73
2021/06/22 08:08:32;;;;;;;10.60;2.87;;;;;;;;;;5107128;28;20489;-73
2021/06/22 08:11:00;;;;;;;5.57;2.30;;;;;;;;;;5116193;28;20805;-73
2021/06/22 08:16:56;;;;;;;7.70;2.73;;;;;;;;;;5105457;28;20454;-71
2021/06/22 08:19:47;;;;;;;8.17;2.30;;;;;;;;;;5105294;28;20472;-73
2021/06/22 08:22:41;;;;;;;3.90;2.10;;;;;;;;;;5116888;28;20443;-73
2021/06/22 08:25:18;;;;;;;10.77;2.67;;;;;;;;;;5110214;28;20452;-74
2021/06/22 08:27:46;;;;;;;7.00;3.00;;;;;;;;;;5108525;28;20877;-73
2021/06/22 08:33:27;;;;;;;5.80;3.30;;;;;;;;;;5088128;28;20462;-75
2021/06/22 08:38:51;;;;;;;5.60;2.47;;;;;;;;;;5116007;28;20537;-74
2021/06/22 08:41:56;;;;;;;;;;;;;;;;;;;;;
2021/06/22 08:44:51;;;;;;;5.60;2.73;;;;;;;;;;5106350;28;20460;-73
2021/06/22 08:47:32;;;;;;;5.40;3.00;;;;;;;;;;5107747;28;20511;-74
2021/06/22 08:50:13;;;;;;;7.87;2.70;;;;;;;;;;5114716;28;20513;-72
2021/06/22 08:55:38;;;;;;;4.90;3.60;;;;;;;;;;5085495;28;20459;-73
2021/06/22 08:58:35;;;;;;;6.10;3.77;;;;;;;;;;5107529;27;20471;-74
2021/06/22 09:01:37;;;;;;;9.00;4.07;;;;;;;;;;5096582;28;20444;-75
2021/06/22 09:04:30;;;;;;;8.50;3.50;;;;;;;;;;5103614;28;20726;-71
2021/06/22 09:07:06;;;;;;;11.70;3.27;;;;;;;;;;5103430;28;20878;-73
2021/06/22 09:09:39;;;;;;;7.40;3.43;;;;;;;;;;5116381;28;20980;-73
2021/06/22 09:12:20;;;;;;;8.97;2.77;;;;;;;;;;5117101;28;20947;-73
2021/06/22 09:14:49;;;;;;;7.87;3.80;;;;;;;;;;5116494;28;20465;-73
2021/06/22 09:17:27;;;;;;;5.73;3.10;;;;;;;;;;5115859;28;20454;-74
2021/06/22 09:20:03;;;;;;;10.23;3.47;;;;;;;;;;5116229;28;20462;-74
2021/06/22 09:22:48;;;;;;;7.80;3.63;;;;;;;;;;5110541;28;20895;-73
2021/06/22 09:25:17;;;;;;;4.50;2.83;;;;;;;;;;5115065;28;20474;-73
2021/06/22 09:27:51;;;;;;;7.60;4.10;;;;;;;;;;5117215;28;20512;-73
2021/06/22 09:30:40;;;;;;;5.63;2.70;;;;;;;;;;5116198;28;20494;-72
2021/06/22 09:33:22;;;;;;;7.10;2.60;;;;;;;;;;5113542;28;20459;-72
2021/06/22 09:35:53;;;;;;;7.70;3.17;;;;;;;;;;5108870;27;20531;-71
2021/06/22 09:38:23;;;;;;;6.30;2.53;;;;;;;;;;5104811;28;20831;-70
2021/06/22 09:41:06;;;;;;;6.77;2.60;;;;;;;;;;5109841;28;20513;-71
2021/06/22 09:43:50;;;;;;;7.50;3.20;;;;;;;;;;5103636;28;20764;-71
2021/06/22 09:46:37;;;;;;;8.50;3.20;;;;;;;;;;5103197;28;20467;-73
2021/06/22 09:49:08;;;;;;;7.00;2.80;;;;;;;;;;5116664;28;20478;-73
2021/06/22 09:51:56;;;;;;;8.10;3.17;;;;;;;;;;5112319;28;20500;-73
2021/06/22 09:54:34;;;;;;;6.83;3.13;;;;;;;;;;5103707;28;20502;-72
2021/06/22 09:57:09;;;;;;;6.60;3.43;;;;;;;;;;5099558;28;20521;-71
2021/06/22 09:59:54;;;;;;;9.20;3.80;;;;;;;;;;5115655;28;20507;-72
2021/06/22 10:02:25;;;;;;;8.73;4.53;;;;;;;;;;5115059;28;20527;-72
2021/06/22 10:05:12;;;;;;;9.97;3.53;;;;;;;;;;5114923;28;20450;-72
2021/06/22 10:07:48;;;;;;;13.23;5.83;;;;;;;;;;5115259;28;20454;-71
2021/06/22 10:13:31;;;;;;;11.40;4.00;;;;;;;;;;5116328;28;20474;-71
2021/06/22 10:16:17;;;;;;;7.20;3.40;;;;;;;;;;5113419;28;20527;-72
2021/06/22 10:19:02;;;;;;;7.43;2.70;;;;;;;;;;5035358;28;20698;-72
2021/06/22 10:24:48;;;;;;;9.60;3.93;;;;;;;;;;5080550;28;20442;-74
2021/06/22 10:30:32;;;;;;;13.33;4.70;;;;;;;;;;5093686;28;20563;-73
2021/06/22 10:33:01;;;;;;;6.40;4.20;;;;;;;;;;5106197;28;20443;-72
2021/06/22 10:39:04;;;;;;;4.80;2.40;;;;;;;;;;5116844;28;20450;-72
2021/06/22 10:41:44;;;;;;;5.43;2.63;;;;;;;;;;5116048;28;20497;-70
2021/06/22 10:44:30;;;;;;;5.27;2.30;;;;;;;;;;5107240;28;20465;-72
2021/06/22 10:47:17;;;;;;;4.07;2.50;;;;;;;;;;5068542;28;20866;-72
2021/06/22 10:50:01;;;;;;;9.20;3.03;;;;;;;;;;5120029;28;20593;-72
2021/06/22 10:52:50;;;;;;;2.93;1.63;;;;;;;;;;5115874;28;20454;-73
2021/06/22 10:55:56;;;;;;;6.43;2.60;;;;;;;;;;5105046;28;20443;-73
2021/06/22 10:58:31;;;;;;;8.20;2.37;;;;;;;;;;5120858;28;20450;-73
2021/06/22 11:07:21;;;;;;;3.93;1.90;;;;;;;;;;5118596;27;20438;-74
2021/06/22 11:10:08;;;;;;;3.00;1.93;;;;;;;;;;5117362;28;20475;-73
2021/06/22 11:15:53;;;;;;;8.13;1.93;;;;;;;;;;5115359;28;20447;-72
2021/06/22 11:18:25;;;;;;;5.40;2.20;;;;;;;;;;5116944;28;20461;-73
2021/06/22 11:21:10;;;;;;;3.27;2.30;;;;;;;;;;5113919;28;20439;-71
2021/06/22 11:24:08;;;;;;;6.40;2.70;;;;;;;;;;5116857;28;20458;-72
2021/06/22 11:27:03;;;;;;;7.33;2.40;;;;;;;;;;5115828;28;20459;-72
2021/06/22 11:30:11;;;;;;;;;;;;;;;;;;;;;
2021/06/22 11:32:53;;;;;;;7.90;3.30;;;;;;;;;;5112497;28;20449;-71
2021/06/22 11:35:33;;;;;;;6.73;2.60;;;;;;;;;;5116827;28;20458;-71
2021/06/22 11:38:20;;;;;;;5.33;2.53;;;;;;;;;;5116773;28;20470;-70
2021/06/22 11:41:06;;;;;;;6.50;2.30;;;;;;;;;;5105149;28;20443;-70
2021/06/22 11:43:47;;;;;;;7.03;2.87;;;;;;;;;;5087332;28;20499;-71
2021/06/22 11:49:38;;;;;;;8.87;3.20;;;;;;;;;;5009609;28;20480;-70
2021/06/22 11:52:11;;;;;;;4.73;3.40;;;;;;;;;;5097608;28;20491;-70
2021/06/22 11:54:58;;;;;;;5.73;2.97;;;;;;;;;;5116829;28;20457;-70
2021/06/22 12:03:19;;;;;;;4.83;2.07;;;;;;;;;;5101796;28;20458;-72
2021/06/22 12:06:06;;;;;;;8.53;3.20;;;;;;;;;;5106649;28;20467;-70
2021/06/22 12:11:52;;;;;;;5.23;2.93;;;;;;;;;;5057412;28;20452;-70
2021/06/22 12:20:23;;;;;;;3.03;2.00;;;;;;;;;;5097024;28;20451;-71
2021/06/22 12:23:17;;;;;;;4.93;2.07;;;;;;;;;;5109781;28;20457;-71
2021/06/22 12:25:49;;;;;;;7.13;2.93;;;;;;;;;;5095995;28;20470;-72
2021/06/22 12:28:20;;;;;;;5.70;2.57;;;;;;;;;;5109323;28;20482;-71
2021/06/22 12:30:49;;;;;;;4.07;2.37;;;;;;;;;;5116101;28;20475;-71
2021/06/22 12:33:24;;;;;;;4.23;2.33;;;;;;;;;;5114991;28;20455;-71
2021/06/22 12:36:05;;;;;;;6.70;2.67;;;;;;;;;;5116076;28;20511;-72
2021/06/22 12:38:38;;;;;;;9.17;2.47;;;;;;;;;;5115413;28;20525;-71
2021/06/22 12:41:09;;;;;;;5.33;2.30;;;;;;;;;;5116496;28;20955;-71
2021/06/22 12:43:47;;;;;;;13.30;2.37;;;;;;;;;;5116168;28;20620;-71
2021/06/22 12:46:22;;;;;;;5.97;2.07;;;;;;;;;;5110838;28;20910;-72
2021/06/22 12:48:58;;;;;;;7.60;3.33;;;;;;;;;;5116295;28;20446;-70
2021/06/22 12:51:26;;;;;;;5.57;1.83;;;;;;;;;;5115153;28;20484;-69
2021/06/22 12:53:55;;;;;;;5.90;2.60;;;;;;;;;;5114087;28;20470;-70
2021/06/22 12:56:37;;;;;;;6.30;2.40;;;;;;;;;;5116032;28;20454;-71
2021/06/22 12:59:13;;;;;;;3.50;1.90;;;;;;;;;;5114978;28;21072;-71
2021/06/22 13:01:46;;;;;;;8.83;2.30;;;;;;;;;;5114160;28;20435;-71
2021/06/22 13:04:14;;;;;;;7.07;3.20;;;;;;;;;;5110357;28;20507;-70
2021/06/22 13:07:00;;;;;;;9.03;3.10;;;;;;;;;;5116815;28;20744;-70
2021/06/22 13:09:28;;;;;;;5.00;3.43;;;;;;;;;;5115973;28;20459;-69
2021/06/22 13:11:59;;;;;;;5.77;3.00;;;;;;;;;;5115682;28;20538;-69
2021/06/22 13:14:54;;;;;;;6.70;2.50;;;;;;;;;;5115722;28;20451;-72
2021/06/22 13:18:03;;;;;;;5.80;2.10;;;;;;;;;;5114805;28;20474;-69
2021/06/22 13:20:36;;;;;;;6.80;2.47;;;;;;;;;;5111711;28;20850;-71
2021/06/22 13:23:10;;;;;;;6.67;2.37;;;;;;;;;;5113825;28;20451;-71
2021/06/22 13:25:39;;;;;;;5.23;2.30;;;;;;;;;;5113166;28;20751;-71
2021/06/22 13:28:21;;;;;;;4.87;2.60;;;;;;;;;;5116465;28;20454;-72
2021/06/22 13:30:50;;;;;;;7.60;2.47;;;;;;;;;;5113896;28;20537;-70
2021/06/22 13:33:33;;;;;;;5.23;2.53;;;;;;;;;;5113353;28;20508;-71
2021/06/22 13:36:03;;;;;;;4.30;2.43;;;;;;;;;;5113090;28;20536;-71
2021/06/22 13:39:03;;;;;;;7.70;2.43;;;;;;;;;;5114521;28;20490;-71
2021/06/22 13:44:44;;;;;;;5.60;2.13;;;;;;;;;;5078748;28;20587;-73
2021/06/22 13:50:33;;;;;;;3.60;1.83;;;;;;;;;;5100371;28;20801;-71
2021/06/22 13:53:11;;;;;;;9.40;3.23;;;;;;;;;;5114452;28;20508;-71
2021/06/22 13:55:39;;;;;;;4.67;1.80;;;;;;;;;;5115554;28;20519;-72
2021/06/22 13:58:19;;;;;;;8.43;2.60;;;;;;;;;;5114781;28;20453;-72
2021/06/22 14:00:58;;;;;;;9.47;2.30;;;;;;;;;;5114812;28;20446;-73
2021/06/22 14:03:32;;;;;;;4.70;2.07;;;;;;;;;;5113305;28;20717;-72
2021/06/22 14:06:00;;;;;;;5.73;2.30;;;;;;;;;;5097128;28;20446;-71
2021/06/22 14:08:32;;;;;;;9.03;2.47;;;;;;;;;;5096378;28;20580;-71
2021/06/22 14:11:04;;;;;;;5.27;2.50;;;;;;;;;;5113068;28;20479;-72
2021/06/22 14:13:32;;;;;;;18.57;2.87;;;;;;;;;;5107982;28;20435;-71
2021/06/22 14:16:04;;;;;;;6.87;2.00;;;;;;;;;;5117589;28;20455;-71
2021/06/22 14:18:32;;;;;;;7.17;3.23;;;;;;;;;;5119361;28;20716;-71
2021/06/22 14:21:09;;;;;;;3.10;1.40;;;;;;;;;;5119608;28;20455;-71
2021/06/22 14:23:42;;;;;;;8.90;2.27;;;;;;;;;;5118531;28;20472;-71
2021/06/22 14:26:11;;;;;;;5.80;1.90;;;;;;;;;;5118184;28;20451;-71
2021/06/22 14:28:41;;;;;;;6.70;1.87;;;;;;;;;;5116924;28;20465;-72
2021/06/22 14:31:09;;;;;;;6.60;2.50;;;;;;;;;;5114696;28;20539;-72
2021/06/22 14:33:38;;;;;;;4.27;2.20;;;;;;;;;;5119016;28;20471;-72
2021/06/22 14:36:10;;;;;;;9.03;1.90;;;;;;;;;;5118198;28;20454;-72
2021/06/22 14:38:39;;;;;;;9.03;2.43;;;;;;;;;;5119804;28;20515;-71
2021/06/22 14:41:10;;;;;;;6.90;2.30;;;;;;;;;;5118709;28;20443;-72
2021/06/22 14:43:42;;;;;;;5.67;1.87;;;;;;;;;;5111478;28;20464;-72
2021/06/22 14:46:11;;;;;;;6.33;2.00;;;;;;;;;;5111196;28;20463;-72
2021/06/22 14:48:40;;;;;;;10.10;2.80;;;;;;;;;;5118471;28;20545;-72
2021/06/22 14:51:08;;;;;;;4.67;1.60;;;;;;;;;;5118443;28;20486;-72
2021/06/22 14:53:37;;;;;;;6.97;2.30;;;;;;;;;;5117693;28;20554;-72
2021/06/22 14:56:10;;;;;;;8.60;2.23;;;;;;;;;;5112611;28;20467;-74
2021/06/22 14:58:41;;;;;;;3.97;1.93;;;;;;;;;;5103614;28;20967;-71
2021/06/22 15:01:14;;;;;;;5.93;2.27;;;;;;;;;;5118946;28;20478;-71
2021/06/22 15:03:47;;;;;;;5.50;2.07;;;;;;;;;;5117510;28;21039;-72
2021/06/22 15:06:18;;;;;;;8.73;2.60;;;;;;;;;;5116560;28;20472;-72
2021/06/22 15:08:47;;;;;;;2.67;1.60;;;;;;;;;;5098708;28;20749;-71
2021/06/22 15:11:22;;;;;;;2.87;1.80;;;;;;;;;;5097599;28;20765;-72
2021/06/22 15:13:51;;;;;;;4.80;1.90;;;;;;;;;;5105266;28;20451;-71
2021/06/22 15:16:20;;;;;;;6.50;2.40;;;;;;;;;;5097688;28;20444;-70
2021/06/22 15:18:48;;;;;;;7.00;1.90;;;;;;;;;;5097402;28;20485;-70
2021/06/22 15:21:16;;;;;;;6.20;2.00;;;;;;;;;;5117219;28;20451;-70
2021/06/22 15:23:45;;;;;;;12.40;2.50;;;;;;;;;;5117349;28;20457;-72
2021/06/22 15:26:14;;;;;;;3.50;1.53;;;;;;;;;;5104620;28;20462;-71
2021/06/22 15:28:46;;;;;;;7.97;2.47;;;;;;;;;;5116584;28;20443;-71
2021/06/22 15:31:15;;;;;;;5.77;2.60;;;;;;;;;;5116740;28;20520;-71
2021/06/22 15:33:45;;;;;;;8.80;2.33;;;;;;;;;;5116782;28;20531;-71
2021/06/22 15:36:14;;;;;;;6.10;2.93;;;;;;;;;;5115281;28;20773;-71
2021/06/22 15:38:44;;;;;;;6.20;2.40;;;;;;;;;;5117078;28;21069;-71
2021/06/22 15:41:12;;;;;;;6.00;2.30;;;;;;;;;;5116009;28;20554;-71
2021/06/22 15:43:54;;;;;;;3.60;1.63;;;;;;;;;;5117308;28;20511;-72
2021/06/22 15:46:22;;;;;;;7.90;2.23;;;;;;;;;;5118133;28;20455;-72
2021/06/22 15:48:51;;;;;;;5.43;1.67;;;;;;;;;;5117164;28;20446;-72
2021/06/22 15:51:28;;;;;;;3.93;1.70;;;;;;;;;;5117589;28;20565;-73
2021/06/22 15:53:58;;;;;;;7.77;2.40;;;;;;;;;;5116631;28;20457;-72
2021/06/22 15:56:28;;;;;;;4.50;3.00;;;;;;;;;;5117919;28;20450;-72
2021/06/22 15:58:57;;;;;;;6.77;1.70;;;;;;;;;;5117014;28;20925;-73
2021/06/22 16:01:32;;;;;;;4.83;2.30;;;;;;;;;;5114477;28;21055;-73
2021/06/22 16:04:03;;;;;;;6.30;1.97;;;;;;;;;;5098871;28;20846;-72
2021/06/22 16:06:34;;;;;;;6.13;1.77;;;;;;;;;;5095611;28;20535;-74
2021/06/22 16:09:03;;;;;;;7.53;1.97;;;;;;;;;;5096410;28;20549;-72
2021/06/22 16:11:37;;;;;;;6.60;2.30;;;;;;;;;;5109514;28;20498;-73
2021/06/22 16:14:10;;;;;;;3.93;1.33;;;;;;;;;;5116239;28;20444;-71
2021/06/22 16:16:38;;;;;;;5.20;1.90;;;;;;;;;;5117547;28;20850;-70